Time;durP1;ratioP1;P1;durP2;ratioP2;P2;SDS_P1;SDS_P2;PMS_P1;PMS_P2;Temp;Humidity;BMP_temperature;BMP_pressure;BME280_temperature;BME280_humidity;BME280_pressure;Samples;Min_cycle;Max_cycle;Signal;HPM_P1;HPM_P2
2021/06/06 04:52:38;;;;;;;5.88;2.65;;;;;;;;;;5099290;28;20223;-45
2021/06/06 04:55:06;;;;;;;3.08;2.22;;;;;;;;;;5114714;28;20448;-44
2021/06/06 04:57:32;;;;;;;5.32;2.40;;;;;;;;;;5114568;28;20248;-47
2021/06/06 04:59:58;;;;;;;6.57;2.30;;;;;;;;;;5114738;28;20222;-44
2021/06/06 05:02:24;;;;;;;9.10;3.00;;;;;;;;;;5093150;28;20476;-44
2021/06/06 05:04:50;;;;;;;4.63;2.60;;;;;;;;;;5094278;28;20269;-44
2021/06/06 05:07:16;;;;;;;5.47;2.55;;;;;;;;;;5096344;28;20163;-44
2021/06/06 05:09:42;;;;;;;10.93;3.00;;;;;;;;;;5104339;28;20207;-44
2021/06/06 05:12:08;;;;;;;6.32;2.97;;;;;;;;;;5098999;28;20412;-44
2021/06/06 05:14:34;;;;;;;6.32;2.80;;;;;;;;;;5108526;28;20208;-44
2021/06/06 05:17:00;;;;;;;5.97;2.55;;;;;;;;;;5099091;28;20192;-44
2021/06/06 05:19:26;;;;;;;6.93;2.65;;;;;;;;;;5099192;28;20538;-43
2021/06/06 05:21:52;;;;;;;4.57;2.67;;;;;;;;;;5107984;28;20224;-43
2021/06/06 05:24:18;;;;;;;4.07;2.35;;;;;;;;;;5099874;28;20568;-44
2021/06/06 05:26:44;;;;;;;3.35;1.85;;;;;;;;;;5098058;28;20172;-44
2021/06/06 05:29:10;;;;;;;9.60;2.10;;;;;;;;;;5100687;28;20166;-44
2021/06/06 05:31:36;;;;;;;5.25;1.98;;;;;;;;;;5097048;28;20256;-43
2021/06/06 05:34:02;;;;;;;5.55;1.90;;;;;;;;;;5099863;28;20166;-43
2021/06/06 05:36:28;;;;;;;2.80;2.13;;;;;;;;;;5099015;28;20553;-43
2021/06/06 05:38:54;;;;;;;2.53;1.80;;;;;;;;;;5098446;28;20186;-44
2021/06/06 05:41:21;;;;;;;3.53;1.98;;;;;;;;;;5097151;28;20189;-44
2021/06/06 05:43:47;;;;;;;1.80;1.70;;;;;;;;;;5096860;28;20178;-43
2021/06/06 05:46:16;;;;;;;1.90;1.75;;;;;;;;;;5077401;28;20202;-44
2021/06/06 05:48:42;;;;;;;3.38;2.13;;;;;;;;;;5094784;28;20200;-44
2021/06/06 05:51:09;;;;;;;2.80;1.67;;;;;;;;;;5117087;28;20217;-43
2021/06/06 05:53:35;;;;;;;3.17;1.65;;;;;;;;;;5103676;28;20189;-44
2021/06/06 05:56:03;;;;;;;2.40;1.58;;;;;;;;;;5079605;28;20224;-44
2021/06/06 05:58:29;;;;;;;2.30;2.10;;;;;;;;;;5084870;28;20177;-44
2021/06/06 06:00:55;;;;;;;5.05;2.13;;;;;;;;;;5109707;28;20185;-44
2021/06/06 06:03:21;;;;;;;2.90;2.03;;;;;;;;;;5117589;28;20173;-44
2021/06/06 06:05:48;;;;;;;2.67;1.92;;;;;;;;;;5115231;28;20639;-44
2021/06/06 06:08:22;;;;;;;2.45;1.60;;;;;;;;;;5106970;28;20169;-43
2021/06/06 06:10:48;;;;;;;2.08;1.65;;;;;;;;;;5097699;28;20665;-43
2021/06/06 06:13:15;;;;;;;1.70;1.60;;;;;;;;;;5109865;28;20203;-43
2021/06/06 06:15:41;;;;;;;1.90;1.80;;;;;;;;;;5116917;28;20192;-44
2021/06/06 06:18:08;;;;;;;3.40;2.10;;;;;;;;;;5104712;28;20587;-44
2021/06/06 06:20:34;;;;;;;2.42;1.80;;;;;;;;;;5089906;28;20184;-43
2021/06/06 06:22:59;;;;;;;2.35;2.15;;;;;;;;;;5097228;28;20177;-44
2021/06/06 06:25:25;;;;;;;2.35;1.90;;;;;;;;;;5114131;28;20208;-44
2021/06/06 06:27:52;;;;;;;2.97;1.88;;;;;;;;;;5116876;28;20302;-44
2021/06/06 06:30:21;;;;;;;2.47;2.28;;;;;;;;;;5109266;28;20240;-44
2021/06/06 06:32:46;;;;;;;2.60;2.40;;;;;;;;;;5088831;28;20189;-44
2021/06/06 06:35:13;;;;;;;2.28;1.95;;;;;;;;;;5097432;28;20225;-44
2021/06/06 06:37:39;;;;;;;2.17;1.80;;;;;;;;;;5089928;28;20188;-44
2021/06/06 06:40:06;;;;;;;1.75;1.60;;;;;;;;;;5094860;28;20194;-44
2021/06/06 06:42:32;;;;;;;1.90;1.60;;;;;;;;;;5095303;28;20288;-44
2021/06/06 06:44:58;;;;;;;3.17;2.08;;;;;;;;;;5096573;28;20607;-45
2021/06/06 06:47:24;;;;;;;2.80;2.00;;;;;;;;;;5116350;28;20177;-44
2021/06/06 06:49:51;;;;;;;3.17;2.17;;;;;;;;;;5098659;28;20172;-44
2021/06/06 06:52:17;;;;;;;2.10;2.00;;;;;;;;;;5085646;28;20182;-44
2021/06/06 06:54:43;;;;;;;2.53;2.22;;;;;;;;;;5115667;28;20196;-44
2021/06/06 06:57:09;;;;;;;3.13;2.20;;;;;;;;;;5116595;28;20184;-44
2021/06/06 06:59:37;;;;;;;2.28;2.17;;;;;;;;;;5116414;28;20170;-44
2021/06/06 07:02:03;;;;;;;3.13;2.35;;;;;;;;;;5099661;28;20169;-44
2021/06/06 07:04:30;;;;;;;2.47;1.90;;;;;;;;;;5078081;28;20202;-44
2021/06/06 07:06:56;;;;;;;2.50;2.30;;;;;;;;;;5106396;28;20178;-44
2021/06/06 07:09:25;;;;;;;2.10;1.90;;;;;;;;;;5097634;28;20266;-44
2021/06/06 07:11:53;;;;;;;3.20;2.33;;;;;;;;;;5079019;28;20175;-44
2021/06/06 07:14:19;;;;;;;2.50;2.15;;;;;;;;;;5090308;28;20533;-44
2021/06/06 07:16:45;;;;;;;2.22;2.13;;;;;;;;;;5095632;28;20177;-44
2021/06/06 07:19:11;;;;;;;2.30;2.10;;;;;;;;;;5109043;28;20264;-44
2021/06/06 07:21:38;;;;;;;3.30;2.10;;;;;;;;;;5101093;28;20585;-43
2021/06/06 07:24:04;;;;;;;4.18;2.20;;;;;;;;;;5096289;28;20182;-44
2021/06/06 07:26:35;;;;;;;4.03;2.38;;;;;;;;;;5096183;28;20255;-44
2021/06/06 07:29:02;;;;;;;2.63;2.42;;;;;;;;;;5075503;28;20221;-44
2021/06/06 07:31:29;;;;;;;4.00;3.05;;;;;;;;;;5091861;28;20177;-44
2021/06/06 07:33:55;;;;;;;2.72;2.53;;;;;;;;;;5097952;28;20186;-44
2021/06/06 07:36:23;;;;;;;2.28;2.08;;;;;;;;;;5078369;28;20182;-44
2021/06/06 07:38:50;;;;;;;3.97;3.00;;;;;;;;;;5081343;28;20186;-44
2021/06/06 07:41:16;;;;;;;4.50;3.53;;;;;;;;;;5094777;28;20190;-44
2021/06/06 07:43:42;;;;;;;4.55;3.58;;;;;;;;;;5109160;28;20564;-44
2021/06/06 07:46:08;;;;;;;3.60;3.28;;;;;;;;;;5098194;28;20301;-44
2021/06/06 07:48:34;;;;;;;3.70;3.28;;;;;;;;;;5095345;28;20185;-44
2021/06/06 07:51:00;;;;;;;3.08;2.78;;;;;;;;;;5094185;28;20311;-44
2021/06/06 07:53:27;;;;;;;3.78;3.47;;;;;;;;;;5106862;28;20193;-44
2021/06/06 07:55:55;;;;;;;3.58;3.28;;;;;;;;;;5108051;28;20177;-44
2021/06/06 07:58:23;;;;;;;3.60;3.30;;;;;;;;;;5115399;28;20245;-44
2021/06/06 08:00:49;;;;;;;4.07;3.70;;;;;;;;;;5114543;28;20173;-44
2021/06/06 08:03:15;;;;;;;3.83;3.53;;;;;;;;;;5114930;28;20184;-44
2021/06/06 08:05:42;;;;;;;4.30;3.90;;;;;;;;;;5102199;28;20335;-44
2021/06/06 08:08:09;;;;;;;5.72;3.78;;;;;;;;;;5103852;28;20252;-43
2021/06/06 08:10:37;;;;;;;6.38;4.15;;;;;;;;;;5097275;28;20184;-44
2021/06/06 08:13:04;;;;;;;8.73;3.80;;;;;;;;;;5094739;28;20161;-44
2021/06/06 08:15:30;;;;;;;4.25;3.50;;;;;;;;;;5094250;28;20686;-44
2021/06/06 08:17:56;;;;;;;6.97;3.63;;;;;;;;;;5095235;28;20173;-44
2021/06/06 08:20:24;;;;;;;6.15;4.00;;;;;;;;;;5112480;28;20173;-43
2021/06/06 08:22:51;;;;;;;7.65;4.10;;;;;;;;;;5106528;28;20178;-43
2021/06/06 08:25:19;;;;;;;4.85;4.40;;;;;;;;;;5094838;28;20186;-43
2021/06/06 08:27:47;;;;;;;4.68;4.07;;;;;;;;;;5094736;28;20170;-43
2021/06/06 08:30:19;;;;;;;5.25;3.63;;;;;;;;;;5094956;28;20173;-43
2021/06/06 08:32:46;;;;;;;5.40;4.22;;;;;;;;;;5094214;28;20184;-43
2021/06/06 08:35:12;;;;;;;5.32;4.78;;;;;;;;;;5096087;28;20488;-44
2021/06/06 08:37:39;;;;;;;8.52;5.85;;;;;;;;;;5099900;28;20438;-43
2021/06/06 08:40:07;;;;;;;6.50;5.75;;;;;;;;;;5102028;28;20264;-43
2021/06/06 08:42:36;;;;;;;16.98;12.05;;;;;;;;;;5098459;28;20250;-44
2021/06/06 08:45:08;;;;;;;15.18;10.85;;;;;;;;;;5094589;28;20205;-43
2021/06/06 08:47:36;;;;;;;14.85;9.70;;;;;;;;;;5086442;28;20178;-43
2021/06/06 08:50:13;;;;;;;11.68;8.90;;;;;;;;;;5091410;28;20261;-43
2021/06/06 08:52:58;;;;;;;11.13;8.60;;;;;;;;;;5093968;28;20192;-43
2021/06/06 08:55:24;;;;;;;13.18;8.98;;;;;;;;;;5117535;28;20552;-43
2021/06/06 08:57:53;;;;;;;13.02;9.82;;;;;;;;;;5119242;28;20289;-43
2021/06/06 09:00:31;;;;;;;12.13;9.20;;;;;;;;;;5118685;28;20177;-43
2021/06/06 09:03:02;;;;;;;10.63;7.97;;;;;;;;;;5103230;28;20196;-43
2021/06/06 09:05:32;;;;;;;9.48;7.55;;;;;;;;;;5111928;28;20258;-43
2021/06/06 09:07:58;;;;;;;10.35;7.53;;;;;;;;;;5110642;28;20166;-43
2021/06/06 09:10:27;;;;;;;8.68;7.55;;;;;;;;;;5098403;28;20178;-43
2021/06/06 09:12:54;;;;;;;8.23;7.32;;;;;;;;;;5097298;28;20177;-43
2021/06/06 09:15:21;;;;;;;8.82;6.47;;;;;;;;;;5097783;28;20177;-44
2021/06/06 09:17:49;;;;;;;6.70;5.97;;;;;;;;;;5115811;28;20180;-43
2021/06/06 09:20:24;;;;;;;6.18;5.30;;;;;;;;;;5118529;28;20454;-43
2021/06/06 09:22:50;;;;;;;6.03;5.43;;;;;;;;;;5110245;28;20259;-43
2021/06/06 09:25:26;;;;;;;6.68;5.10;;;;;;;;;;5104161;28;20564;-43
2021/06/06 09:28:04;;;;;;;5.80;4.82;;;;;;;;;;5098101;28;20545;-43
2021/06/06 09:30:30;;;;;;;5.65;5.10;;;;;;;;;;5097842;28;20187;-44
2021/06/06 09:33:05;;;;;;;5.78;4.82;;;;;;;;;;5097252;28;20246;-44
2021/06/06 09:35:32;;;;;;;4.78;4.38;;;;;;;;;;5113101;28;20180;-44
2021/06/06 09:38:13;;;;;;;5.38;4.70;;;;;;;;;;5109987;28;20276;-43
2021/06/06 09:40:42;;;;;;;4.78;4.38;;;;;;;;;;5096229;28;20177;-44
2021/06/06 09:43:10;;;;;;;6.03;4.78;;;;;;;;;;5097968;28;20180;-44
2021/06/06 09:45:37;;;;;;;5.32;4.82;;;;;;;;;;5097724;28;20242;-44
2021/06/06 09:48:16;;;;;;;4.25;3.95;;;;;;;;;;5097789;28;20162;-44
2021/06/06 09:50:47;;;;;;;5.43;4.38;;;;;;;;;;5096949;28;20170;-44
2021/06/06 09:53:24;;;;;;;4.75;4.35;;;;;;;;;;5109784;28;20224;-44
2021/06/06 09:55:51;;;;;;;4.07;3.78;;;;;;;;;;5118114;28;20180;-43
2021/06/06 09:58:23;;;;;;;3.92;3.63;;;;;;;;;;5117694;28;20177;-43
2021/06/06 10:00:51;;;;;;;4.13;3.72;;;;;;;;;;5106310;28;20268;-44
2021/06/06 10:03:32;;;;;;;4.97;4.10;;;;;;;;;;5101455;28;20606;-44
2021/06/06 10:06:10;;;;;;;4.95;4.50;;;;;;;;;;5097799;28;20538;-43
2021/06/06 10:08:36;;;;;;;5.70;4.35;;;;;;;;;;5109923;28;20173;-43
2021/06/06 10:11:08;;;;;;;5.05;4.65;;;;;;;;;;5095756;28;20207;-43
2021/06/06 10:13:36;;;;;;;4.95;4.45;;;;;;;;;;5097363;28;20257;-43
2021/06/06 10:16:06;;;;;;;4.53;4.13;;;;;;;;;;5097015;28;20491;-44
2021/06/06 10:18:34;;;;;;;4.95;4.55;;;;;;;;;;5099411;28;20185;-44
2021/06/06 10:21:09;;;;;;;5.65;4.50;;;;;;;;;;5102042;28;20185;-44
2021/06/06 10:23:37;;;;;;;4.80;4.40;;;;;;;;;;5109310;28;20602;-43
2021/06/06 10:26:16;;;;;;;5.88;5.10;;;;;;;;;;5096864;28;20239;-43
2021/06/06 10:28:48;;;;;;;5.18;4.75;;;;;;;;;;5096212;28;20219;-43
2021/06/06 10:31:14;;;;;;;5.32;4.82;;;;;;;;;;5075988;28;20181;-43
2021/06/06 10:33:42;;;;;;;6.65;4.82;;;;;;;;;;5096756;28;20181;-43
2021/06/06 10:36:08;;;;;;;5.45;4.82;;;;;;;;;;5115008;28;20209;-43
2021/06/06 10:38:37;;;;;;;7.07;4.88;;;;;;;;;;5101343;28;20178;-44
2021/06/06 10:41:30;;;;;;;6.95;5.28;;;;;;;;;;5095422;28;20289;-44
2021/06/06 10:44:06;;;;;;;8.30;5.28;;;;;;;;;;5093825;28;20259;-44
2021/06/06 10:46:43;;;;;;;9.15;5.10;;;;;;;;;;5096649;28;20265;-44
2021/06/06 10:49:09;;;;;;;6.25;5.30;;;;;;;;;;5095588;28;20180;-43
2021/06/06 10:51:40;;;;;;;6.22;5.20;;;;;;;;;;5095406;28;20170;-44
2021/06/06 10:54:27;;;;;;;7.07;5.53;;;;;;;;;;5096287;28;20220;-44
2021/06/06 10:56:55;;;;;;;6.78;5.60;;;;;;;;;;5055302;28;20222;-44
2021/06/06 10:59:29;;;;;;;6.20;5.60;;;;;;;;;;5095376;28;20260;-44
2021/06/06 11:01:56;;;;;;;7.85;6.30;;;;;;;;;;5095497;28;20698;-44
2021/06/06 11:04:25;;;;;;;6.55;5.57;;;;;;;;;;5100742;28;20207;-43
2021/06/06 11:07:20;;;;;;;7.03;6.38;;;;;;;;;;5114476;28;20700;-43
2021/06/06 11:10:07;;;;;;;6.90;6.30;;;;;;;;;;5081509;28;20515;-43
2021/06/06 11:12:36;;;;;;;7.10;6.40;;;;;;;;;;5094460;28;20174;-43
2021/06/06 11:15:05;;;;;;;7.72;6.88;;;;;;;;;;5095707;28;20166;-43
2021/06/06 11:17:36;;;;;;;6.38;5.85;;;;;;;;;;5095932;28;20189;-44
2021/06/06 11:20:13;;;;;;;7.47;6.60;;;;;;;;;;5095761;28;20172;-44
2021/06/06 11:22:41;;;;;;;7.13;6.47;;;;;;;;;;5089225;28;20165;-44
2021/06/06 11:25:24;;;;;;;7.65;6.63;;;;;;;;;;5102921;28;20213;-44
2021/06/06 11:27:56;;;;;;;6.82;6.22;;;;;;;;;;5098101;28;20173;-44
2021/06/06 11:30:22;;;;;;;6.75;6.15;;;;;;;;;;5100081;28;20220;-44
2021/06/06 11:33:03;;;;;;;7.78;6.00;;;;;;;;;;5094929;28;20194;-44
2021/06/06 11:35:35;;;;;;;6.60;5.97;;;;;;;;;;5097193;28;20204;-44
2021/06/06 11:38:13;;;;;;;7.00;5.75;;;;;;;;;;5095401;28;20223;-44
2021/06/06 11:40:42;;;;;;;6.63;6.03;;;;;;;;;;5094948;28;20204;-44
2021/06/06 11:43:14;;;;;;;6.60;6.00;;;;;;;;;;5095518;28;20193;-44
2021/06/06 11:45:42;;;;;;;6.28;5.63;;;;;;;;;;5091838;28;20458;-44
2021/06/06 11:48:09;;;;;;;6.32;5.75;;;;;;;;;;5095366;28;20170;-44
2021/06/06 11:51:51;;;;;;;6.65;5.95;;;;;;;;;;5090187;28;20533;-44
2021/06/06 11:54:31;;;;;;;7.55;6.78;;;;;;;;;;5065994;28;20186;-44
2021/06/06 11:57:00;;;;;;;7.03;5.68;;;;;;;;;;5066138;28;20171;-44
2021/06/06 11:59:49;;;;;;;5.95;5.45;;;;;;;;;;5071775;28;20471;-44
2021/06/06 12:02:19;;;;;;;7.15;6.45;;;;;;;;;;5071229;28;20167;-44
2021/06/06 12:04:45;;;;;;;6.75;6.20;;;;;;;;;;5071886;28;20546;-43
2021/06/06 12:07:13;;;;;;;6.90;6.20;;;;;;;;;;5075123;28;20173;-44
2021/06/06 12:09:41;;;;;;;7.25;6.20;;;;;;;;;;5062760;28;20252;-44
2021/06/06 12:12:45;;;;;;;6.80;6.10;;;;;;;;;;5059845;28;20170;-44
2021/06/06 12:15:19;;;;;;;6.70;5.45;;;;;;;;;;5029813;28;20172;-44
2021/06/06 12:17:46;;;;;;;6.18;5.68;;;;;;;;;;5029625;28;20190;-44
2021/06/06 12:20:15;;;;;;;5.75;5.30;;;;;;;;;;5051747;28;20505;-43
2021/06/06 12:22:42;;;;;;;6.25;5.60;;;;;;;;;;5069626;28;20186;-43
2021/06/06 12:25:14;;;;;;;6.05;5.43;;;;;;;;;;5070350;28;20253;-44
2021/06/06 12:27:48;;;;;;;6.40;5.80;;;;;;;;;;5069905;28;20210;-43
2021/06/06 12:30:14;;;;;;;6.65;6.05;;;;;;;;;;5065885;28;20740;-43
2021/06/06 12:32:46;;;;;;;8.65;6.18;;;;;;;;;;5067675;28;20202;-43
2021/06/06 12:35:18;;;;;;;6.57;5.93;;;;;;;;;;5069373;28;20615;-43
2021/06/06 12:37:47;;;;;;;7.68;5.80;;;;;;;;;;5070255;28;20269;-43
2021/06/06 12:40:14;;;;;;;7.68;5.82;;;;;;;;;;5065610;28;20175;-43
2021/06/06 12:42:40;;;;;;;6.75;6.05;;;;;;;;;;5064350;28;20233;-43
2021/06/06 12:45:08;;;;;;;9.48;5.88;;;;;;;;;;5072843;28;20185;-44
2021/06/06 12:47:36;;;;;;;7.07;5.93;;;;;;;;;;5081537;28;20657;-44
2021/06/06 12:50:12;;;;;;;6.88;5.93;;;;;;;;;;5084950;28;20297;-44
2021/06/06 12:52:39;;;;;;;6.95;6.15;;;;;;;;;;5079986;28;20181;-44
2021/06/06 12:55:15;;;;;;;7.07;5.82;;;;;;;;;;5070829;28;20175;-44
2021/06/06 12:57:49;;;;;;;9.55;6.03;;;;;;;;;;5070508;28;20179;-44
2021/06/06 13:00:33;;;;;;;8.90;5.68;;;;;;;;;;5070534;28;20174;-43
2021/06/06 13:03:00;;;;;;;6.43;5.68;;;;;;;;;;5058317;28;20562;-44
2021/06/06 13:05:32;;;;;;;6.40;5.80;;;;;;;;;;5057478;28;20419;-44
2021/06/06 13:07:59;;;;;;;8.38;5.90;;;;;;;;;;5056845;28;20183;-44
2021/06/06 13:10:51;;;;;;;5.93;5.32;;;;;;;;;;5057047;28;20500;-44
2021/06/06 13:13:18;;;;;;;9.73;6.00;;;;;;;;;;5054225;28;20195;-43
2021/06/06 13:15:45;;;;;;;6.93;6.22;;;;;;;;;;5056802;28;20179;-44
2021/06/06 13:18:25;;;;;;;6.43;5.65;;;;;;;;;;5057003;28;20175;-44
2021/06/06 13:20:55;;;;;;;8.00;5.97;;;;;;;;;;5056536;28;20190;-44
2021/06/06 13:23:26;;;;;;;7.20;5.80;;;;;;;;;;5056406;28;20454;-44
2021/06/06 13:25:52;;;;;;;7.35;5.93;;;;;;;;;;5056739;28;20285;-44
2021/06/06 13:28:31;;;;;;;7.60;5.72;;;;;;;;;;5057010;28;20245;-44
2021/06/06 13:31:03;;;;;;;6.68;5.97;;;;;;;;;;5056277;28;20194;-44
2021/06/06 13:33:29;;;;;;;6.65;5.65;;;;;;;;;;5056485;28;20179;-44
2021/06/06 13:35:55;;;;;;;7.82;6.30;;;;;;;;;;5056093;28;20179;-44
2021/06/06 13:38:21;;;;;;;9.00;5.82;;;;;;;;;;5054206;28;20183;-44
2021/06/06 13:40:49;;;;;;;8.57;5.75;;;;;;;;;;5056108;28;20262;-44
2021/06/06 13:43:16;;;;;;;7.28;5.90;;;;;;;;;;5056629;28;20194;-44
2021/06/06 13:45:42;;;;;;;10.43;6.22;;;;;;;;;;5056089;28;20183;-43
2021/06/06 13:48:10;;;;;;;7.43;5.88;;;;;;;;;;5056328;28;20582;-44
2021/06/06 13:50:40;;;;;;;6.22;5.63;;;;;;;;;;5055619;28;20214;-43
2021/06/06 13:53:12;;;;;;;6.70;5.93;;;;;;;;;;5056155;28;20272;-44
2021/06/06 13:55:38;;;;;;;6.30;5.70;;;;;;;;;;5050910;28;20179;-44
2021/06/06 13:58:04;;;;;;;7.82;5.97;;;;;;;;;;5056480;28;20183;-44
2021/06/06 14:00:31;;;;;;;6.40;5.68;;;;;;;;;;5056016;28;20176;-44
2021/06/06 14:03:02;;;;;;;6.20;5.60;;;;;;;;;;5056151;28;20566;-44
2021/06/06 14:05:29;;;;;;;8.25;5.50;;;;;;;;;;5055805;28;20221;-44
2021/06/06 14:07:55;;;;;;;7.65;5.72;;;;;;;;;;5055535;28;20220;-44
2021/06/06 14:10:25;;;;;;;5.78;5.28;;;;;;;;;;5055951;28;20248;-44
2021/06/06 14:12:51;;;;;;;6.90;5.22;;;;;;;;;;5055359;28;20174;-44
2021/06/06 14:15:19;;;;;;;6.18;5.57;;;;;;;;;;5055076;28;20187;-44
2021/06/06 14:17:45;;;;;;;8.20;6.03;;;;;;;;;;5055911;28;20186;-44
2021/06/06 14:20:12;;;;;;;7.63;5.18;;;;;;;;;;5055542;28;20187;-44
2021/06/06 14:22:38;;;;;;;5.75;5.15;;;;;;;;;;5055344;28;20183;-44
2021/06/06 14:25:05;;;;;;;6.43;5.13;;;;;;;;;;5049436;28;20194;-44
2021/06/06 14:27:31;;;;;;;6.60;5.30;;;;;;;;;;5055715;28;20211;-44
2021/06/06 14:29:57;;;;;;;5.82;5.28;;;;;;;;;;5055754;28;20239;-44
2021/06/06 14:32:23;;;;;;;6.35;4.90;;;;;;;;;;5054664;28;20175;-44
2021/06/06 14:34:49;;;;;;;5.70;5.07;;;;;;;;;;5055309;28;20242;-44
2021/06/06 14:37:15;;;;;;;5.47;4.97;;;;;;;;;;5055032;28;20179;-44
2021/06/06 14:39:42;;;;;;;6.05;5.20;;;;;;;;;;5043874;28;20324;-44
2021/06/06 14:42:08;;;;;;;5.10;4.53;;;;;;;;;;5045929;28;20176;-44
2021/06/06 14:44:34;;;;;;;5.60;4.97;;;;;;;;;;5050097;28;20266;-44
2021/06/06 14:47:00;;;;;;;5.45;4.88;;;;;;;;;;5046481;28;20190;-44
2021/06/06 14:49:26;;;;;;;4.88;4.47;;;;;;;;;;5049973;28;20183;-44
2021/06/06 14:51:53;;;;;;;6.07;4.97;;;;;;;;;;5054193;28;20424;-44
2021/06/06 14:54:19;;;;;;;5.00;4.50;;;;;;;;;;5049369;28;20168;-44
2021/06/06 14:56:46;;;;;;;4.85;4.30;;;;;;;;;;5055179;28;20553;-44
2021/06/06 14:59:12;;;;;;;4.60;4.20;;;;;;;;;;5055361;28;20185;-44
2021/06/06 15:01:38;;;;;;;4.60;4.13;;;;;;;;;;5054509;28;20182;-44
2021/06/06 15:04:05;;;;;;;4.50;4.07;;;;;;;;;;5055201;28;20175;-44
2021/06/06 15:06:31;;;;;;;4.57;4.18;;;;;;;;;;5054454;28;20258;-44
2021/06/06 15:08:57;;;;;;;5.00;4.50;;;;;;;;;;5054287;28;20171;-44
2021/06/06 15:11:23;;;;;;;4.60;3.95;;;;;;;;;;5054470;28;20588;-44
2021/06/06 15:13:50;;;;;;;5.53;4.00;;;;;;;;;;5054877;28;20181;-44
2021/06/06 15:16:17;;;;;;;4.90;4.43;;;;;;;;;;5054755;28;20418;-44
2021/06/06 15:18:44;;;;;;;5.32;4.22;;;;;;;;;;5053792;28;20209;-44
2021/06/06 15:21:16;;;;;;;4.40;3.78;;;;;;;;;;5046822;28;20608;-44
2021/06/06 15:23:42;;;;;;;3.92;3.50;;;;;;;;;;5048715;28;20601;-44
2021/06/06 15:26:09;;;;;;;4.32;3.92;;;;;;;;;;5054520;28;20197;-44
2021/06/06 15:28:36;;;;;;;4.32;3.72;;;;;;;;;;5047865;28;20194;-44
2021/06/06 15:31:03;;;;;;;4.30;3.65;;;;;;;;;;5074002;28;20240;-44
2021/06/06 15:33:29;;;;;;;4.05;3.67;;;;;;;;;;5058647;28;20266;-44
2021/06/06 15:35:56;;;;;;;4.47;3.60;;;;;;;;;;5051049;28;20506;-44
2021/06/06 15:38:23;;;;;;;5.50;4.13;;;;;;;;;;5049269;28;20466;-44
2021/06/06 15:40:50;;;;;;;4.43;3.85;;;;;;;;;;5053836;28;20493;-44
2021/06/06 15:43:17;;;;;;;9.00;4.22;;;;;;;;;;5054191;28;20175;-44
2021/06/06 15:45:45;;;;;;;5.55;3.63;;;;;;;;;;5053886;28;20502;-44
2021/06/06 15:48:12;;;;;;;4.05;3.75;;;;;;;;;;5052204;28;20210;-44
2021/06/06 15:50:38;;;;;;;5.53;4.38;;;;;;;;;;5048670;28;20249;-44
2021/06/06 15:53:05;;;;;;;5.15;3.90;;;;;;;;;;5053888;28;20266;-44
2021/06/06 15:55:33;;;;;;;5.60;4.05;;;;;;;;;;5053419;28;20206;-45
2021/06/06 15:57:59;;;;;;;4.50;4.10;;;;;;;;;;5053882;28;20661;-45
2021/06/06 16:00:27;;;;;;;5.70;3.83;;;;;;;;;;5053950;28;20191;-44
2021/06/06 16:02:54;;;;;;;5.15;3.90;;;;;;;;;;5053985;28;20198;-44
2021/06/06 16:05:21;;;;;;;3.65;3.40;;;;;;;;;;5053990;28;20198;-45
2021/06/06 16:07:47;;;;;;;4.35;3.80;;;;;;;;;;5054042;28;20183;-44
2021/06/06 16:10:14;;;;;;;3.95;3.60;;;;;;;;;;5053671;28;20206;-44
2021/06/06 16:12:42;;;;;;;4.40;4.00;;;;;;;;;;5053861;28;20167;-44
2021/06/06 16:15:08;;;;;;;3.83;3.53;;;;;;;;;;5050559;28;20183;-44
2021/06/06 16:17:35;;;;;;;4.20;3.80;;;;;;;;;;5034538;28;20176;-44
2021/06/06 16:20:01;;;;;;;3.78;3.58;;;;;;;;;;5036784;28;20561;-44
2021/06/06 16:22:27;;;;;;;5.00;3.85;;;;;;;;;;5052408;28;20183;-44
2021/06/06 16:24:54;;;;;;;3.90;3.45;;;;;;;;;;5045177;28;20187;-44
2021/06/06 16:27:20;;;;;;;3.85;3.55;;;;;;;;;;5053996;28;20174;-44
2021/06/06 16:29:46;;;;;;;4.22;3.83;;;;;;;;;;5054124;28;20490;-44
2021/06/06 16:32:13;;;;;;;4.22;3.60;;;;;;;;;;5053404;28;20171;-44
2021/06/06 16:34:39;;;;;;;4.68;3.78;;;;;;;;;;5052497;28;20187;-44
2021/06/06 16:37:05;;;;;;;4.13;3.72;;;;;;;;;;5054004;28;20179;-44
2021/06/06 16:39:31;;;;;;;4.53;3.80;;;;;;;;;;5046350;28;20175;-44
2021/06/06 16:41:57;;;;;;;4.32;3.92;;;;;;;;;;5057229;28;20163;-44
2021/06/06 16:44:23;;;;;;;4.13;3.70;;;;;;;;;;5057347;28;20498;-44
2021/06/06 16:46:49;;;;;;;4.85;4.20;;;;;;;;;;5056595;28;20186;-44
2021/06/06 16:49:15;;;;;;;3.83;3.53;;;;;;;;;;5057381;28;20174;-44
2021/06/06 16:51:41;;;;;;;3.80;3.50;;;;;;;;;;5056456;28;20211;-44
2021/06/06 16:54:07;;;;;;;3.88;3.53;;;;;;;;;;5053032;28;20179;-44
2021/06/06 16:56:33;;;;;;;4.32;3.92;;;;;;;;;;5052417;28;20179;-45
2021/06/06 16:58:59;;;;;;;4.90;3.83;;;;;;;;;;5056047;28;20179;-45
2021/06/06 17:01:27;;;;;;;4.70;4.00;;;;;;;;;;5056136;28;20237;-44
2021/06/06 17:03:54;;;;;;;6.65;3.45;;;;;;;;;;5056752;28;20178;-44
2021/06/06 17:06:20;;;;;;;3.92;3.50;;;;;;;;;;5053229;28;20183;-44
2021/06/06 17:08:46;;;;;;;3.70;3.40;;;;;;;;;;5056776;28;20273;-44
2021/06/06 17:11:13;;;;;;;7.05;4.80;;;;;;;;;;5048649;28;20212;-44
2021/06/06 17:13:39;;;;;;;5.80;4.65;;;;;;;;;;5040279;28;20187;-44
2021/06/06 17:16:07;;;;;;;5.28;4.75;;;;;;;;;;5057226;28;20186;-44
2021/06/06 17:18:33;;;;;;;5.22;4.65;;;;;;;;;;5057161;28;20163;-44
2021/06/06 17:21:01;;;;;;;5.20;4.35;;;;;;;;;;5056128;28;20459;-44
2021/06/06 17:23:28;;;;;;;5.70;4.22;;;;;;;;;;5056448;28;20205;-44
2021/06/06 17:25:57;;;;;;;4.70;4.30;;;;;;;;;;5056764;28;20191;-44
2021/06/06 17:28:23;;;;;;;4.60;4.18;;;;;;;;;;5057054;28;20198;-44
2021/06/06 17:30:49;;;;;;;5.00;4.50;;;;;;;;;;5056144;28;20211;-44
2021/06/06 17:33:15;;;;;;;4.80;4.30;;;;;;;;;;5056613;28;20469;-44
2021/06/06 17:35:44;;;;;;;5.72;4.65;;;;;;;;;;5056377;28;20229;-44
2021/06/06 17:38:11;;;;;;;4.80;4.40;;;;;;;;;;5056515;28;20440;-45
2021/06/06 17:40:37;;;;;;;4.30;3.90;;;;;;;;;;5056189;28;20565;-45
2021/06/06 17:43:04;;;;;;;4.80;4.35;;;;;;;;;;5056862;28;20170;-45
2021/06/06 17:45:30;;;;;;;6.03;4.15;;;;;;;;;;5055971;28;20175;-44
2021/06/06 17:47:56;;;;;;;4.82;4.10;;;;;;;;;;5056304;28;20183;-44
2021/06/06 17:50:24;;;;;;;4.78;4.38;;;;;;;;;;5055695;28;20209;-45
2021/06/06 17:52:53;;;;;;;4.32;4.00;;;;;;;;;;5055919;28;20203;-44
2021/06/06 17:55:30;;;;;;;4.80;4.40;;;;;;;;;;5055000;28;20259;-44
2021/06/06 17:57:57;;;;;;;5.53;4.43;;;;;;;;;;5055950;28;20189;-44
2021/06/06 18:00:24;;;;;;;4.35;3.95;;;;;;;;;;5056151;28;20179;-44
2021/06/06 18:02:50;;;;;;;4.82;4.38;;;;;;;;;;5055890;28;20167;-44
2021/06/06 18:05:17;;;;;;;4.70;4.32;;;;;;;;;;5055385;28;20172;-44
2021/06/06 18:07:43;;;;;;;5.13;4.35;;;;;;;;;;5055882;28;20187;-44
2021/06/06 18:10:11;;;;;;;6.32;4.70;;;;;;;;;;5047640;28;20202;-46
2021/06/06 18:12:37;;;;;;;5.32;4.40;;;;;;;;;;5055501;28;20264;-45
2021/06/06 18:15:05;;;;;;;5.03;4.53;;;;;;;;;;5055915;28;20167;-45
2021/06/06 18:17:31;;;;;;;5.20;4.80;;;;;;;;;;5055839;28;20185;-44
2021/06/06 18:19:57;;;;;;;4.78;4.38;;;;;;;;;;5056149;28;20247;-44
2021/06/06 18:22:23;;;;;;;7.32;4.53;;;;;;;;;;5054445;28;20615;-44
2021/06/06 18:24:49;;;;;;;5.40;4.90;;;;;;;;;;5055650;28;20179;-44
2021/06/06 18:27:16;;;;;;;4.40;4.00;;;;;;;;;;5055952;28;20199;-44
2021/06/06 18:29:42;;;;;;;5.85;4.30;;;;;;;;;;5055298;28;20177;-45
2021/06/06 18:32:11;;;;;;;4.90;4.40;;;;;;;;;;5054656;28;20267;-45
2021/06/06 18:34:38;;;;;;;5.53;5.03;;;;;;;;;;5055601;28;20172;-44
2021/06/06 18:37:04;;;;;;;5.00;4.60;;;;;;;;;;5055452;28;20183;-44
2021/06/06 18:39:30;;;;;;;5.97;5.38;;;;;;;;;;5055532;28;20220;-44
2021/06/06 18:41:57;;;;;;;5.93;5.43;;;;;;;;;;5055047;28;20600;-44
2021/06/06 18:44:25;;;;;;;8.20;5.15;;;;;;;;;;5054602;28;20207;-44
2021/06/06 18:46:51;;;;;;;7.18;5.65;;;;;;;;;;5051275;28;20190;-44
2021/06/06 18:49:18;;;;;;;6.43;5.82;;;;;;;;;;5041927;28;20195;-44
2021/06/06 18:51:45;;;;;;;5.90;5.32;;;;;;;;;;5051583;28;20308;-44
2021/06/06 18:54:11;;;;;;;7.10;6.50;;;;;;;;;;5054819;28;20428;-44
2021/06/06 18:56:38;;;;;;;7.18;6.05;;;;;;;;;;5055323;28;20179;-44
2021/06/06 18:59:04;;;;;;;6.88;6.28;;;;;;;;;;5053224;28;20561;-45
2021/06/06 19:01:30;;;;;;;6.70;6.10;;;;;;;;;;5046485;28;20187;-45
2021/06/06 19:03:57;;;;;;;6.80;6.20;;;;;;;;;;5050232;28;20187;-44
2021/06/06 19:06:25;;;;;;;5.95;5.45;;;;;;;;;;5053424;28;20183;-44
2021/06/06 19:08:52;;;;;;;8.43;5.53;;;;;;;;;;5051692;28;20250;-44
2021/06/06 19:11:19;;;;;;;6.78;5.57;;;;;;;;;;5047221;28;20612;-44
2021/06/06 19:13:45;;;;;;;10.57;5.82;;;;;;;;;;5055021;28;20175;-44
2021/06/06 19:16:12;;;;;;;7.57;5.28;;;;;;;;;;5044446;28;20257;-44
2021/06/06 19:18:38;;;;;;;6.68;5.50;;;;;;;;;;5048602;28;20174;-44
2021/06/06 19:21:04;;;;;;;8.38;5.82;;;;;;;;;;5052102;28;20278;-44
2021/06/06 19:23:32;;;;;;;5.97;5.22;;;;;;;;;;5053044;28;20175;-44
2021/06/06 19:25:59;;;;;;;6.25;5.65;;;;;;;;;;5053859;28;20167;-44
2021/06/06 19:28:26;;;;;;;9.43;6.90;;;;;;;;;;5047133;28;20606;-44
2021/06/06 19:30:52;;;;;;;7.50;6.80;;;;;;;;;;5037149;28;20278;-44
2021/06/06 19:33:19;;;;;;;11.23;7.75;;;;;;;;;;5054109;28;20574;-44
2021/06/06 19:35:46;;;;;;;8.10;7.30;;;;;;;;;;5048878;28;20191;-44
2021/06/06 19:38:12;;;;;;;9.45;8.52;;;;;;;;;;5051166;28;20190;-44
2021/06/06 19:40:39;;;;;;;8.52;7.63;;;;;;;;;;5051128;28;20211;-44
2021/06/06 19:43:07;;;;;;;7.72;6.90;;;;;;;;;;5050026;28;20830;-44